Portada
METAR-TAF:

METAR-TAF

Aeropuertos :

Alice Springs, Australia

latitud: 23-48S, longitud: 133-53E, altitud: 545 m

Observación

El informe se hizo hace 19 minutos, a las 06:00 UTC
Viento 15 kt del este-noreste, variando entre este-noreste y sur-sureste
Temperatura 42°C
Humedad 13%
Presión 1010 hPa
Visibilidad 10 km o más

METAR: YBAS 190600Z AUTO 07015KT 070V150 9999 // NCD 42/08 Q1010 RF00.0/000.0

Hora: 15:49 (06:19 UTC)

Pronóstico

El informe se hizo hace 1 hora y 18 minutos, a las 05:01 UTC
Pronóstico válido del 19 a las 06 UTC al 20 a las 06 UTC
Viento 12 kt del este
Visibilidad 10 km o más
sin nubes por debajo de 1500 m y sin presencia de cumulonimbus.
A partir de las 20 a las 0100 UTC
Viento 18 kt del este con ráfagas de 28 kt
Visibilidad 10 km o más
sin nubes por debajo de 1500 m y sin presencia de cumulonimbus.

TAF: YBAS 190501Z 1906/2006 10012KT CAVOK FM200100 09018G28KT CAVOK

Observaciones y pronósticos meteorológicos de más de 4000 aeropuertos (mensajes METAR y TAF).

Los puntos amarillos y rojos representan las estaciones disponibles.

Ponga el ratón en el punto deseado para ver el nombre de la estación.

Haga clic para ver las observaciones y los pronósticos meteorológicos.

Para cambiar el mapa : haga clic en los botones verdes con una cruz de color negro para hacer un zoom, en el botón verde con un guión para alejar o en las flechas verdes para mapas adyacentes.


METAR-TAF: